Latest Weather Observations for Gladstone

IDQ60801

Issued at 8:02 am EST Friday 24 November 2017 (issued every 30 minutes, with the page automatically refreshed every 10 minutes)

About weather observations | Map of weather stations | Latest weather observations for QLD | Other Formats
Station Details ID: 039123 Name: GLADSTONE RADAR Lat: -23.86 Lon: 151.26 Height: 74.5 m
Data from the previous 72 hours. | See also: Recent months at Gladstone
Date/Time
EST
Temp
°C
App
Temp
°C
Dew
Point
°C
Rel
Hum
%
Delta-T
°C
Wind Press
QNH
hPa
Press
MSL
hPa
Rain since
9am
mm
Dir  Spd
km/h
Gust
km/h
Spd
kts
Gust
kts
24/08:00am 25.3 24.4 17.7 62 4.8 SE 19 30 10 16 1015.1 1014.7 0.0
24/07:30am 24.2 22.8 17.9 68 4.0 SE 22 32 12 17 1015.1 1014.7 0.0
24/07:00am 23.3 22.5 18.0 72 3.3 SE 19 32 10 17 1014.9 1014.5 0.0
24/06:30am 22.2 21.2 18.0 77 2.6 SE 20 32 11 17 1014.7 1014.3 0.0
24/06:00am 21.0 20.6 18.0 83 1.9 SSE 17 26 9 14 1014.5 1014.1 0.0
24/05:30am 20.4 20.0 18.0 86 1.5 SSE 17 26 9 14 1014.3 1013.9 0.0
24/05:00am 19.9 19.8 17.9 88 1.2 SSE 15 28 8 15 1014.1 1013.7 0.0
24/04:30am 19.8 19.7 17.8 88 1.2 SSE 15 24 8 13 1013.7 1013.3 0.0
24/04:00am 19.8 19.3 17.8 88 1.2 SSE 17 24 9 13 1013.4 1013.0 0.0
24/03:30am 19.9 19.4 17.7 87 1.4 SSE 17 22 9 12 1013.2 1012.8 0.0
24/03:00am 20.0 19.8 17.6 86 1.5 SSE 15 20 8 11 1013.3 1012.9 0.0
24/02:30am 20.2 19.6 17.6 85 1.6 SSE 17 26 9 14 1013.2 1012.8 0.0
24/02:00am 20.1 19.9 17.5 85 1.6 SSE 15 20 8 11 1013.3 1012.9 0.0
24/01:30am 20.2 20.0 17.6 85 1.6 SSE 15 20 8 11 1013.4 1013.0 0.0
24/01:00am 20.5 20.3 17.5 83 1.8 SE 15 22 8 12 1013.6 1013.2 0.0
24/12:30am 20.6 20.4 17.6 83 1.9 SSE 15 22 8 12 1013.8 1013.4 0.0
24/12:00am 21.0 20.9 17.8 82 2.0 SE 15 20 8 11 1014.1 1013.7 0.0
 
Date/Time
EST
Temp
°C
App
Temp
°C
Dew
Point
°C
Rel
Hum
%
Delta-T
°C
Wind Press
QNH
hPa
Press
MSL
hPa
Rain since
9am
mm
Dir  Spd
km/h
Gust
km/h
Spd
kts
Gust
kts
23/11:30pm 21.4 20.6 18.0 81 2.1 SE 19 26 10 14 1014.4 1014.0 0.0
23/11:00pm 21.7 20.8 18.1 80 2.2 ESE 20 30 11 16 1014.6 1014.2 0.0
23/10:30pm 21.9 21.0 18.1 79 2.4 ESE 20 28 11 15 1014.7 1014.3 0.0
23/10:00pm 22.0 21.0 18.0 78 2.5 ESE 20 30 11 16 1014.8 1014.4 0.0
23/09:30pm 22.3 21.4 18.1 77 2.6 ESE 20 32 11 17 1014.7 1014.3 0.0
23/09:00pm 22.7 22.0 18.7 78 2.5 ESE 20 32 11 17 1014.6 1014.2 0.0
23/08:30pm 22.9 20.9 18.2 75 3.0 ESE 26 39 14 21 1014.3 1013.9 0.0
23/08:00pm 23.0 21.5 18.5 76 2.8 E 24 35 13 19 1013.9 1013.5 0.0
23/07:30pm 23.1 20.9 18.6 76 2.8 E 28 39 15 21 1013.6 1013.2 0.0
23/07:00pm 23.1 20.6 18.0 73 3.2 E 28 43 15 23 1013.4 1013.0 0.0
23/06:30pm 23.2 20.4 18.3 74 3.1 E 30 43 16 23 1013.0 1012.6 0.0
23/06:00pm 23.4 20.3 18.5 74 3.1 E 32 43 17 23 1012.6 1012.2 0.0
23/05:30pm 23.7 20.4 18.4 72 3.3 E 33 48 18 26 1012.3 1011.9 0.0
23/05:00pm 24.1 20.8 18.3 70 3.7 E 33 44 18 24 1012.0 1011.6 0.0
23/04:31pm 24.9 22.0 17.9 65 4.4 E 30 48 16 26 1012.0 1011.6 0.0
23/04:30pm 25.1 22.0 17.6 63 4.7 ENE 30 46 16 25 1012.0 1011.6 0.0
23/04:29pm 25.4 22.9 18.1 64 4.6 ENE 28 46 15 25 1012.0 1011.6 0.0
23/04:00pm 26.0 23.1 17.9 61 5.1 ENE 30 43 16 23 1012.0 1011.6 0.0
23/03:30pm 26.5 23.1 17.6 58 5.6 ENE 32 43 17 23 1012.1 1011.7 0.0
23/03:00pm 27.0 24.3 17.5 56 6.0 E 28 37 15 20 1012.1 1011.7 0.0
23/02:30pm 27.8 25.8 17.3 52 6.6 ENE 24 37 13 20 1012.3 1011.9 0.0
23/02:00pm 28.6 26.0 17.8 52 6.9 ENE 28 37 15 20 1012.5 1012.1 0.0
23/01:30pm 28.3 26.1 17.8 53 6.7 ENE 26 37 14 20 1012.7 1012.3 0.0
23/01:00pm 28.4 25.7 17.6 52 6.8 ENE 28 37 15 20 1013.0 1012.6 0.0
23/12:30pm 28.8 26.9 18.6 54 6.6 E 26 35 14 19 1013.2 1012.8 0.0
23/12:00pm 28.7 26.4 16.6 48 7.6 E 24 35 13 19 1013.5 1013.1 0.0
23/11:30am 27.6 25.4 16.9 52 6.7 E 24 35 13 19 1013.8 1013.4 0.0
23/11:00am 27.2 24.6 16.8 53 6.5 ESE 26 37 14 20 1014.2 1013.8 0.0
23/10:30am 26.9 24.8 17.1 55 6.1 ESE 24 37 13 20 1014.3 1013.9 0.0
23/10:00am 26.8 24.1 16.7 54 6.3 ESE 26 39 14 21 1014.2 1013.8 0.0
23/09:30am 26.6 24.5 17.1 56 5.9 ESE 24 43 13 23 1014.2 1013.8 0.0
23/09:00am 25.7 24.2 16.8 58 5.5 ESE 20 35 11 19 1014.4 1014.0 0.2
23/08:30am 25.5 23.9 17.4 61 5.1 SE 22 39 12 21 1014.3 1013.9 0.2
23/08:00am 24.5 23.3 17.5 65 4.4 SE 20 37 11 20 1014.1 1013.7 0.2
23/07:30am 23.4 21.4 17.4 69 3.7 SE 24 33 13 18 1013.9 1013.5 0.2
23/07:00am 22.1 20.8 17.2 74 3.0 SE 20 30 11 16 1014.0 1013.6 0.2
23/06:30am 21.0 20.0 17.6 81 2.1 SE 19 28 10 15 1013.6 1013.2 0.2
23/06:00am 19.3 18.8 16.9 86 1.5 SE 15 28 8 15 1013.4 1013.0 0.2
23/05:30am 19.0 17.5 16.8 87 1.3 SSE 20 37 11 20 1012.9 1012.5 0.2
23/05:00am 18.8 17.3 16.8 88 1.2 SSE 20 30 11 16 1012.8 1012.4 0.2
23/04:30am 18.5 17.0 16.7 89 1.1 SSE 20 35 11 19 1012.4 1012.0 0.2
23/04:00am 18.3 17.3 16.5 89 1.1 SSE 17 26 9 14 1012.2 1011.8 0.2
23/03:30am 18.3 16.8 16.3 88 1.2 SSE 19 30 10 16 1012.0 1011.6 0.2
23/03:00am 18.4 16.9 16.4 88 1.2 SSE 19 28 10 15 1011.9 1011.5 0.2
23/02:30am 18.3 17.1 16.1 87 1.3 SSE 17 26 9 14 1012.0 1011.6 0.2
23/02:00am 18.3 17.1 16.1 87 1.3 SSE 17 22 9 12 1012.1 1011.7 0.2
23/01:30am 18.4 17.2 16.0 86 1.4 SSE 17 24 9 13 1012.4 1012.0 0.2
23/01:00am 18.5 17.3 16.1 86 1.4 SE 17 26 9 14 1012.6 1012.2 0.2
23/12:30am 18.2 17.2 15.6 85 1.5 SSE 15 24 8 13 1013.0 1012.6 0.2
23/12:00am 18.3 17.3 15.7 85 1.5 SE 15 22 8 12 1013.3 1012.9 0.2
 
Date/Time
EST
Temp
°C
App
Temp
°C
Dew
Point
°C
Rel
Hum
%
Delta-T
°C
Wind Press
QNH
hPa
Press
MSL
hPa
Rain since
9am
mm
Dir  Spd
km/h
Gust
km/h
Spd
kts
Gust
kts
22/11:30pm 18.5 17.2 15.9 85 1.5 SSE 17 26 9 14 1013.6 1013.2 0.2
22/11:00pm 18.7 17.5 16.1 85 1.6 SE 17 24 9 13 1013.9 1013.5 0.2
22/10:30pm 19.0 18.3 16.4 85 1.6 SE 15 20 8 11 1014.3 1013.9 0.2
22/10:00pm 19.3 18.0 16.7 85 1.6 SE 19 24 10 13 1014.4 1014.0 0.2
22/09:30pm 19.6 18.9 16.4 82 1.9 SE 15 24 8 13 1014.6 1014.2 0.2
22/09:00pm 20.1 18.3 16.1 78 2.4 ESE 20 35 11 19 1014.6 1014.2 0.2
22/08:30pm 20.1 18.4 16.3 79 2.3 ESE 20 32 11 17 1014.6 1014.2 0.2
22/08:00pm 20.2 18.6 16.4 79 2.3 ESE 20 32 11 17 1014.6 1014.2 0.2
22/07:30pm 20.6 19.0 16.0 75 2.8 ESE 19 30 10 16 1014.4 1014.0 0.2
22/07:00pm 21.3 18.9 16.3 73 3.0 ESE 24 43 13 23 1013.9 1013.5 0.2
22/06:31pm 21.8 19.0 17.2 75 2.8 E 28 46 15 25 1013.5 1013.1 0.2
22/06:30pm 21.9 19.0 17.1 74 3.0 E 28 41 15 22 1013.5 1013.1 0.2
22/06:00pm 22.2 19.1 16.5 70 3.5 E 28 41 15 22 1013.1 1012.7 0.2
22/05:30pm 22.6 18.8 17.1 71 3.4 E 33 46 18 25 1012.7 1012.3 0.2
22/05:00pm 22.7 18.5 16.3 67 3.9 E 33 46 18 25 1012.4 1012.0 0.2
22/04:30pm 23.5 19.9 17.3 68 3.8 E 32 43 17 23 1012.3 1011.9 0.2
22/04:00pm 24.5 21.4 16.5 61 4.9 E 28 41 15 22 1012.2 1011.8 0.2
22/03:30pm 24.4 21.2 16.4 61 4.9 E 28 41 15 22 1012.2 1011.8 0.2
22/03:00pm 24.9 21.8 16.6 60 5.1 ENE 28 39 15 21 1012.4 1012.0 0.2
22/02:30pm 24.7 21.8 16.2 59 5.2 ESE 26 41 14 22 1012.7 1012.3 0.2
22/02:00pm 24.1 20.6 17.4 66 4.2 E 32 43 17 23 1012.9 1012.5 0.2
22/01:30pm 24.2 20.8 17.7 67 4.1 ESE 32 44 17 24 1013.1 1012.7 0.2
22/01:00pm 24.0 21.6 17.3 66 4.2 ESE 26 41 14 22 1013.5 1013.1 0.2
22/12:57pm 24.1 21.4 17.6 67 4.1 ESE 28 46 15 25 1013.5 1013.1 0.2
22/12:30pm 23.3 21.2 17.1 68 3.8 SE 24 35 13 19 1013.8 1013.4 0.2
22/12:00pm 21.8 19.9 17.6 77 2.6 SE 24 39 13 21 1014.0 1013.6 0.2
22/11:30am 20.7 19.5 17.5 82 2.0 SE 20 33 11 18 1014.1 1013.7 0.2
22/11:00am 20.2 20.0 17.6 85 1.6 SSE 15 26 8 14 1014.3 1013.9 0.2
22/10:30am 19.4 18.7 17.4 88 1.2 SSE 17 28 9 15 1014.4 1014.0 0.2
22/10:00am 19.2 18.4 17.2 88 1.2 SSE 17 24 9 13 1014.7 1014.3 0.2
22/09:30am 19.0 18.4 17.5 91 0.9 SE 17 32 9 17 1014.9 1014.5 0.0
22/09:00am 19.1 19.1 17.1 88 1.2 SSE 13 22 7 12 1015.4 1015.0 0.0
22/08:30am 18.6 17.8 17.1 91 0.9 SSE 17 24 9 13 1015.4 1015.0 0.0
22/08:00am 18.5 18.3 16.7 89 1.1 SSE 13 20 7 11 1015.5 1015.1 0.0
22/07:30am 18.7 18.3 16.3 86 1.4 SSE 13 24 7 13 1015.4 1015.0 0.0
22/07:00am 19.0 18.5 16.0 83 1.8 SSE 13 24 7 13 1015.2 1014.8 0.0
22/06:30am 19.2 18.8 16.1 82 1.9 SE 13 24 7 13 1015.0 1014.6 0.0
22/06:00am 19.1 17.6 15.4 79 2.2 SE 17 28 9 15 1014.6 1014.2 0.0
22/05:30am 19.1 18.6 15.8 81 2.0 SSE 13 20 7 11 1014.2 1013.8 0.0
22/05:00am 19.0 17.7 15.7 81 2.0 SE 17 30 9 16 1013.6 1013.2 0.0
22/04:30am 18.9 17.2 15.8 82 1.8 SSE 19 32 10 17 1013.2 1012.8 0.0
22/04:00am 18.9 16.6 15.6 81 2.0 SE 22 35 12 19 1012.9 1012.5 0.0
22/03:30am 19.1 16.0 15.6 80 2.1 SE 26 39 14 21 1012.9 1012.5 0.0
22/03:00am 19.1 17.2 15.8 81 2.0 SSE 20 33 11 18 1013.0 1012.6 0.0
22/02:30am 19.1 16.9 16.0 82 1.9 SE 22 35 12 19 1012.9 1012.5 0.0
22/02:00am 19.2 17.1 16.1 82 1.9 SE 22 32 12 17 1013.2 1012.8 0.0
22/01:30am 19.1 17.5 16.0 82 1.9 SE 19 28 10 15 1013.4 1013.0 0.0
22/01:00am 19.2 17.4 15.9 81 2.0 SE 20 32 11 17 1013.6 1013.2 0.0
22/12:30am 19.1 17.2 15.8 81 2.0 SE 20 28 11 15 1013.9 1013.5 0.0
22/12:00am 19.1 17.4 15.8 81 2.0 SE 19 32 10 17 1014.4 1014.0 0.0
 
Date/Time
EST
Temp
°C
App
Temp
°C
Dew
Point
°C
Rel
Hum
%
Delta-T
°C
Wind Press
QNH
hPa
Press
MSL
hPa
Rain since
9am
mm
Dir  Spd
km/h
Gust
km/h
Spd
kts
Gust
kts
21/11:30pm 19.1 17.8 15.8 81 2.0 SE 17 26 9 14 1014.8 1014.4 0.0
21/11:00pm 19.3 17.6 15.8 80 2.1 SE 19 30 10 16 1015.2 1014.8 0.0
21/10:30pm 19.4 17.8 16.1 81 2.0 SE 19 30 10 16 1015.5 1015.1 0.0
21/10:00pm 19.7 18.2 16.3 81 2.0 SE 19 28 10 15 1015.6 1015.2 0.0
21/09:30pm 19.7 18.7 16.5 82 1.9 SE 17 28 9 15 1015.6 1015.2 0.0
21/09:00pm 19.8 18.4 16.6 82 1.9 SE 19 28 10 15 1015.7 1015.3 0.0
21/08:30pm 19.9 18.4 16.3 80 2.2 SE 19 28 10 15 1015.5 1015.1 0.0
21/08:00pm 20.2 18.4 15.6 75 2.7 SE 19 28 10 15 1015.5 1015.1 0.0
21/07:30pm 20.3 18.6 15.7 75 2.7 SE 19 30 10 16 1015.3 1014.9 0.0
21/07:00pm 20.5 18.9 15.1 71 3.2 SE 17 26 9 14 1015.4 1015.0 0.0
21/06:30pm 21.0 19.6 15.5 71 3.3 SE 17 24 9 13 1015.1 1014.7 0.0
21/06:00pm 21.3 20.6 16.3 73 3.0 SE 15 24 8 13 1014.8 1014.4 0.0
21/05:30pm 21.8 19.7 16.3 71 3.3 SE 22 35 12 19 1014.6 1014.2 0.0
21/05:21pm 23.0 19.9 16.5 67 4.0 ESE 28 46 15 25 1014.5 1014.1 0.0
21/05:00pm 23.4 19.8 17.2 68 3.8 E 32 46 17 25 1013.9 1013.5 0.0
21/04:30pm 23.8 20.4 15.8 61 4.9 E 28 43 15 23 1014.1 1013.7 0.0
21/04:00pm 24.3 20.4 15.5 58 5.3 E 30 41 16 22 1014.2 1013.8 0.0
21/03:44pm 24.0 19.7 15.5 59 5.1 E 32 50 17 27 1014.2 1013.8 0.0
21/03:30pm 24.5 20.4 16.0 59 5.2 E 32 44 17 24 1014.0 1013.6 0.0
21/03:00pm 24.3 19.8 15.5 58 5.3 E 33 44 18 24 1014.2 1013.8 0.0
21/02:30pm 25.3 21.4 16.4 57 5.5 E 32 46 17 25 1014.3 1013.9 0.0
21/02:00pm 25.0 21.3 15.0 53 6.0 E 28 37 15 20 1014.6 1014.2 0.0
21/01:30pm 25.2 22.0 15.2 54 6.0 ENE 26 37 14 20 1014.9 1014.5 0.0
21/01:00pm 26.9 24.9 16.5 53 6.4 ENE 22 35 12 19 1015.3 1014.9 0.0
21/12:30pm 28.4 25.4 16.7 49 7.3 ENE 28 44 15 24 1015.3 1014.9 0.0
21/12:00pm 27.0 23.7 16.0 51 6.8 ENE 28 41 15 22 1015.6 1015.2 0.0
21/11:30am 27.9 24.8 15.5 46 7.6 E 26 35 14 19 1016.1 1015.7 0.0
21/11:00am 28.3 25.7 15.9 47 7.7 E 24 35 13 19 1016.5 1016.1 0.0
21/10:30am 28.3 26.1 15.9 47 7.7 E 22 35 12 19 1016.6 1016.2 0.0
21/10:00am 26.0 23.2 15.4 52 6.4 ESE 24 37 13 20 1016.9 1016.5 0.0
21/09:30am 26.4 23.9 16.1 53 6.3 ESE 24 41 13 22 1016.5 1016.1 0.0
21/09:00am 25.1 22.7 16.3 58 5.4 ESE 24 39 13 21 1016.8 1016.4 1.2
21/08:30am 24.1 22.1 15.6 59 5.1 ESE 20 35 11 19 1016.8 1016.4 1.2

Other Formats:

Comma delimited format used in spreadsheet applications
http://www.bom.gov.au/fwo/IDQ60801/IDQ60801.94380.axf

JavaScript Object Notation format (JSON) in row-major order
http://www.bom.gov.au/fwo/IDQ60801/IDQ60801.94380.json